Time;durP1;ratioP1;P1;durP2;ratioP2;P2;SDS_P1;SDS_P2;PMS_P1;PMS_P2;Temp;Humidity;BMP_temperature;BMP_pressure;BME280_temperature;BME280_humidity;BME280_pressure;Samples;Min_cycle;Max_cycle;Signal;HPM_P1;HPM_P2
2022/11/12 00:04:38;;;;;;;16.13;10.67;;;;;4.80;102527.00;;;;10457833;28;20284;-78
2022/11/12 00:09:58;;;;;;;13.47;9.37;;;;;4.80;102530.00;;;;10458083;28;20228;-78
2022/11/12 00:15:19;;;;;;;13.63;9.50;;;;;4.80;102523.00;;;;10458565;28;20653;-78
2022/11/12 00:20:40;;;;;;;16.40;11.40;;;;;4.80;102528.00;;;;10428273;28;20183;-78
2022/11/12 00:26:01;;;;;;;16.40;11.07;;;;;4.80;102523.00;;;;10427803;28;20289;-78
2022/11/12 00:31:21;;;;;;;16.20;10.53;;;;;4.80;102527.00;;;;10453469;28;20811;-78
2022/11/12 00:36:41;;;;;;;15.07;10.87;;;;;4.70;102535.00;;;;10423043;28;20561;-78
2022/11/12 00:42:02;;;;;;;13.83;9.77;;;;;4.70;102530.00;;;;10425599;28;20175;-78
2022/11/12 00:47:22;;;;;;;14.93;9.50;;;;;4.70;102523.00;;;;10427927;28;20190;-78
2022/11/12 00:52:43;;;;;;;14.23;9.50;;;;;4.60;102515.00;;;;10428218;28;20218;-78
2022/11/12 00:58:03;;;;;;;12.10;8.57;;;;;4.50;102519.00;;;;10427421;28;20194;-78
2022/11/12 01:03:26;;;;;;;14.43;9.40;;;;;4.50;102520.00;;;;10430466;28;20194;-78
2022/11/12 01:08:48;;;;;;;13.20;8.43;;;;;4.40;102515.00;;;;10468521;28;20204;-78
2022/11/12 01:14:09;;;;;;;13.97;10.00;;;;;4.30;102513.00;;;;10470206;28;20568;-78
2022/11/12 01:19:29;;;;;;;13.70;8.80;;;;;4.30;102511.00;;;;10459421;28;20194;-78
2022/11/12 01:24:50;;;;;;;13.90;10.27;;;;;4.20;102521.00;;;;10440836;28;20660;-78
2022/11/12 01:30:10;;;;;;;14.23;10.57;;;;;4.20;102520.00;;;;10442919;28;20213;-78
2022/11/12 01:35:31;;;;;;;13.43;9.33;;;;;4.20;102516.00;;;;10481542;28;20263;-78
2022/11/12 01:40:51;;;;;;;13.33;8.87;;;;;4.20;102517.00;;;;10415364;28;20652;-78
2022/11/12 01:46:26;;;;;;;13.37;9.17;;;;;4.20;102512.00;;;;10440684;28;20178;-78
2022/11/12 01:51:52;;;;;;;15.67;10.13;;;;;4.20;102503.00;;;;10423832;28;20222;-78
2022/11/12 01:57:13;;;;;;;13.63;9.97;;;;;4.20;102501.00;;;;10437611;28;20204;-78
2022/11/12 02:02:35;;;;;;;13.80;10.13;;;;;4.10;102495.00;;;;10407231;28;20186;-75
2022/11/12 02:07:57;;;;;;;12.97;8.97;;;;;4.10;102489.00;;;;10456838;28;20217;-75
2022/11/12 02:18:57;;;;;;;15.80;10.43;;;;;4.10;102472.00;;;;10476179;28;20186;-75
2022/11/12 02:24:18;;;;;;;15.50;10.13;;;;;4.10;102474.00;;;;10475819;28;20576;-75
2022/11/12 02:29:45;;;;;;;14.93;9.87;;;;;4.10;102464.00;;;;10493474;28;20228;-75
2022/11/12 02:35:06;;;;;;;13.30;8.70;;;;;4.10;102470.00;;;;10462540;28;20596;-75
2022/11/12 02:40:27;;;;;;;11.57;8.67;;;;;4.00;102468.00;;;;10433495;28;20209;-75
2022/11/12 02:45:47;;;;;;;12.33;8.90;;;;;4.00;102471.00;;;;10417526;28;20197;-75
2022/11/12 02:51:08;;;;;;;14.43;8.67;;;;;3.90;102479.00;;;;10420146;28;20210;-75
2022/11/12 02:56:28;;;;;;;11.37;8.17;;;;;3.90;102470.00;;;;10419902;28;20194;-75
2022/11/12 03:01:49;;;;;;;11.80;8.40;;;;;3.90;102483.00;;;;10450127;28;20193;-75
2022/11/12 03:07:10;;;;;;;13.20;8.03;;;;;3.80;102476.00;;;;10433206;28;20558;-75
2022/11/12 03:12:31;;;;;;;13.80;7.90;;;;;3.80;102478.00;;;;10451297;28;20296;-75
2022/11/12 03:17:51;;;;;;;14.07;8.47;;;;;3.70;102481.00;;;;10436711;28;20276;-75
2022/11/12 03:23:12;;;;;;;14.80;10.00;;;;;3.70;102481.00;;;;10474260;28;20194;-75
2022/11/12 03:28:32;;;;;;;15.10;10.30;;;;;3.70;102481.00;;;;10443709;28;20193;-75
2022/11/12 03:33:53;;;;;;;16.00;9.43;;;;;3.70;102488.00;;;;10485890;28;20194;-75
2022/11/12 03:39:13;;;;;;;13.60;9.53;;;;;3.70;102483.00;;;;10418822;28;20276;-75
2022/11/12 03:44:34;;;;;;;15.80;9.53;;;;;3.80;102469.00;;;;10416131;28;20205;-75
2022/11/12 03:49:54;;;;;;;16.70;10.43;;;;;3.80;102468.00;;;;10419192;28;20225;-75
2022/11/12 03:55:17;;;;;;;15.00;9.63;;;;;3.80;102475.00;;;;10426522;28;20619;-75
2022/11/12 04:00:37;;;;;;;16.07;9.40;;;;;3.70;102471.00;;;;10474650;28;20194;-75
2022/11/12 04:11:37;;;;;;;15.60;9.57;;;;;3.70;102473.00;;;;10439628;28;20206;-75
2022/11/12 04:22:36;;;;;;;14.17;8.63;;;;;3.60;102460.00;;;;10456626;28;20277;-75
2022/11/12 04:27:57;;;;;;;11.83;8.53;;;;;3.50;102467.00;;;;10436306;28;20194;-75
2022/11/12 04:33:17;;;;;;;13.87;8.77;;;;;3.60;102451.00;;;;10453756;28;20719;-75
2022/11/12 04:38:37;;;;;;;14.03;9.33;;;;;3.70;102451.00;;;;10465635;28;20571;-75
2022/11/12 04:49:37;;;;;;;11.40;8.33;;;;;3.80;102434.00;;;;10462287;28;20304;-75
2022/11/12 04:54:58;;;;;;;11.27;7.83;;;;;3.80;102438.00;;;;10482032;28;20177;-75
2022/11/12 05:00:18;;;;;;;12.80;8.47;;;;;3.90;102435.00;;;;10463999;28;20197;-75
2022/11/12 05:05:39;;;;;;;12.17;8.47;;;;;3.90;102431.00;;;;10464649;28;20553;-75
2022/11/12 05:10:59;;;;;;;11.87;7.60;;;;;3.80;102439.00;;;;10464149;28;20723;-75
2022/11/12 05:16:19;;;;;;;13.90;9.07;;;;;3.90;102437.00;;;;10464133;28;20322;-75
2022/11/12 05:27:20;;;;;;;12.67;8.17;;;;;4.10;102441.00;;;;10477708;28;20548;-75
2022/11/12 05:32:40;;;;;;;14.50;8.80;;;;;4.10;102447.00;;;;10428827;28;20233;-75
2022/11/12 05:38:01;;;;;;;15.33;9.37;;;;;4.00;102441.00;;;;10446481;28;20248;-75
2022/11/12 05:43:21;;;;;;;15.33;9.30;;;;;4.00;102448.00;;;;10463269;28;20180;-75
2022/11/12 05:48:42;;;;;;;14.70;9.67;;;;;4.00;102439.00;;;;10462919;28;20189;-75
2022/11/12 05:54:03;;;;;;;14.97;8.73;;;;;3.90;102436.00;;;;10479463;28;20192;-75
2022/11/12 05:59:24;;;;;;;13.80;9.80;;;;;3.90;102445.00;;;;10462790;28;20251;-75
2022/11/12 06:04:45;;;;;;;14.60;9.03;;;;;3.90;102442.00;;;;10432457;28;20227;-75
2022/11/12 06:10:06;;;;;;;18.03;9.00;;;;;3.90;102448.00;;;;10452363;28;20235;-75
2022/11/12 06:15:26;;;;;;;16.27;8.97;;;;;3.80;102437.00;;;;10461355;28;20299;-75
2022/11/12 06:26:28;;;;;;;14.50;8.77;;;;;3.60;102442.00;;;;10458915;28;20209;-75
2022/11/12 06:31:49;;;;;;;12.23;8.33;;;;;3.60;102434.00;;;;10423169;28;20665;-75
2022/11/12 06:37:09;;;;;;;13.13;9.13;;;;;3.60;102441.00;;;;10470289;28;20192;-75
2022/11/12 06:42:29;;;;;;;13.27;8.73;;;;;3.60;102439.00;;;;10461212;28;20213;-75
2022/11/12 06:47:50;;;;;;;14.53;9.33;;;;;3.60;102436.00;;;;10461117;28;20193;-75
2022/11/12 06:53:10;;;;;;;15.70;9.50;;;;;3.60;102439.00;;;;10461013;28;20209;-75
2022/11/12 06:58:31;;;;;;;14.77;9.87;;;;;3.60;102443.00;;;;10461078;28;20878;-75
2022/11/12 07:03:52;;;;;;;14.73;9.47;;;;;3.60;102458.00;;;;10468337;28;20193;-75
2022/11/12 07:09:12;;;;;;;16.33;8.57;;;;;3.70;102462.00;;;;10432978;28;20190;-75
2022/11/12 07:14:33;;;;;;;15.10;9.20;;;;;3.80;102477.00;;;;10436414;28;20193;-75
2022/11/12 07:19:53;;;;;;;12.87;8.63;;;;;3.90;102477.00;;;;10450928;28;20194;-75
2022/11/12 07:25:21;;;;;;;13.73;9.27;;;;;4.00;102487.00;;;;10424273;28;20281;-75
2022/11/12 07:30:42;;;;;;;18.60;10.50;;;;;4.20;102490.00;;;;10427183;28;20226;-75
2022/11/12 07:36:05;;;;;;;16.97;10.57;;;;;4.30;102478.00;;;;10483017;28;20614;-75
2022/11/12 07:41:25;;;;;;;21.17;10.57;;;;;4.60;102471.00;;;;10465236;28;20205;-75
2022/11/12 07:46:46;;;;;;;20.60;11.53;;;;;4.90;102478.00;;;;10440574;28;20174;-75
2022/11/12 07:52:07;;;;;;;17.90;10.43;;;;;5.10;102486.00;;;;10427765;28;20766;-75
2022/11/12 07:57:27;;;;;;;17.23;10.87;;;;;5.30;102492.00;;;;10481486;28;20239;-75
2022/11/12 08:02:48;;;;;;;16.37;10.03;;;;;5.40;102494.00;;;;10467096;28;20247;-75
2022/11/12 08:08:09;;;;;;;14.77;9.87;;;;;5.60;102494.00;;;;10432486;28;20206;-75
2022/11/12 08:13:30;;;;;;;16.90;10.80;;;;;5.70;102501.00;;;;10464129;28;20225;-75
2022/11/12 08:18:50;;;;;;;18.77;11.87;;;;;5.90;102499.00;;;;10480268;28;20182;-75
2022/11/12 08:24:11;;;;;;;16.17;10.73;;;;;6.20;102498.00;;;;10449883;28;20288;-75
2022/11/12 08:29:31;;;;;;;16.93;11.00;;;;;6.60;102495.00;;;;10479389;28;20197;-75
2022/11/12 08:34:52;;;;;;;21.70;13.43;;;;;7.20;102496.00;;;;10482303;28;20190;-75
2022/11/12 08:40:12;;;;;;;22.33;14.77;;;;;7.90;102498.00;;;;10440987;28;20240;-76
2022/11/12 08:45:35;;;;;;;21.43;15.70;;;;;8.50;102491.00;;;;10438283;28;20208;-76
2022/11/12 08:50:56;;;;;;;24.63;13.53;;;;;9.00;102488.00;;;;10424193;28;20675;-74
2022/11/12 08:56:17;;;;;;;17.23;11.87;;;;;9.60;102486.00;;;;10440738;28;20908;-76
2022/11/12 09:01:38;;;;;;;14.43;11.03;;;;;10.00;102483.00;;;;10455261;28;20257;-76
2022/11/12 09:06:58;;;;;;;15.07;10.60;;;;;10.40;102497.00;;;;10423579;28;20613;-76
2022/11/12 09:12:19;;;;;;;11.83;9.67;;;;;10.60;102500.00;;;;10455040;28;20206;-76
2022/11/12 09:17:39;;;;;;;11.20;8.40;;;;;10.80;102503.00;;;;10466309;28;20185;-74
2022/11/12 09:23:07;;;;;;;10.13;7.80;;;;;11.00;102505.00;;;;10481863;28;20219;-75
2022/11/12 09:28:28;;;;;;;8.63;7.53;;;;;11.00;102504.00;;;;10481316;28;20193;-75
2022/11/12 09:33:49;;;;;;;10.10;7.43;;;;;11.10;102504.00;;;;10474507;28;20214;-75
2022/11/12 09:39:09;;;;;;;9.50;7.80;;;;;11.20;102506.00;;;;10419705;28;20201;-75
2022/11/12 09:44:31;;;;;;;9.23;7.13;;;;;11.40;102504.00;;;;10419422;28;20277;-76
2022/11/12 09:50:23;;;;;;;10.20;8.07;;;;;11.50;102508.00;;;;10421958;28;20260;-76
2022/11/12 09:55:47;;;;;;;16.57;10.30;;;;;11.70;102514.00;;;;10453135;28;20700;-76
2022/11/12 10:01:15;;;;;;;15.50;9.50;;;;;11.90;102510.00;;;;10438099;28;20201;-76
2022/11/12 10:06:48;;;;;;;13.43;7.93;;;;;12.30;102512.00;;;;10421112;28;20260;-76
2022/11/12 10:12:33;;;;;;;13.27;8.60;;;;;12.70;102508.00;;;;10420728;28;20225;-76
2022/11/12 10:18:07;;;;;;;10.20;7.80;;;;;13.20;102506.00;;;;10420865;28;20204;-76
2022/11/12 10:23:35;;;;;;;8.83;6.97;;;;;13.50;102505.00;;;;10420613;28;20648;-76
2022/11/12 10:29:33;;;;;;;9.07;6.83;;;;;13.70;102511.00;;;;10434313;28;20190;-76
2022/11/12 10:34:53;;;;;;;7.10;6.40;;;;;14.10;102520.00;;;;10446784;28;20186;-76
2022/11/12 10:40:21;;;;;;;6.60;5.90;;;;;14.40;102526.00;;;;10404006;28;20240;-76
2022/11/12 10:45:43;;;;;;;6.38;5.78;;;;;14.60;102521.00;;;;10420251;28;20267;-76
2022/11/12 10:51:19;;;;;;;5.95;4.85;;;;;14.70;102504.00;;;;10406570;28;20218;-76
2022/11/12 10:56:39;;;;;;;5.55;4.40;;;;;14.90;102491.00;;;;10419721;28;20182;-76
2022/11/12 11:02:00;;;;;;;5.30;4.07;;;;;15.10;102494.00;;;;10447217;28;20189;-76
2022/11/12 11:07:23;;;;;;;4.30;3.50;;;;;15.40;102481.00;;;;10438719;28;20240;-76
2022/11/12 11:12:45;;;;;;;4.15;2.95;;;;;15.60;102480.00;;;;10486020;28;20889;-76
2022/11/12 11:18:11;;;;;;;4.25;3.30;;;;;15.80;102474.00;;;;10433630;28;20857;-75
2022/11/12 11:23:44;;;;;;;5.75;3.97;;;;;15.90;102470.00;;;;10440817;28;20194;-75
2022/11/12 11:29:36;;;;;;;6.78;3.38;;;;;16.00;102466.00;;;;10427014;28;20252;-75
2022/11/12 11:35:12;;;;;;;5.63;3.53;;;;;16.10;102463.00;;;;10456120;28;20270;-75
2022/11/12 11:40:41;;;;;;;4.22;3.22;;;;;16.20;102466.00;;;;10465445;28;20174;-75
2022/11/12 11:46:12;;;;;;;5.80;3.65;;;;;16.30;102470.00;;;;10468348;28;20181;-75
2022/11/12 11:51:45;;;;;;;4.07;3.55;;;;;16.50;102457.00;;;;10481812;28;20209;-75
2022/11/12 11:57:15;;;;;;;4.75;3.30;;;;;16.70;102450.00;;;;10484341;28;20190;-75
2022/11/12 12:03:23;;;;;;;5.30;3.47;;;;;16.90;102453.00;;;;10484205;28;20182;-75
2022/11/12 12:09:08;;;;;;;7.00;3.65;;;;;17.30;102440.00;;;;10421061;28;20607;-75
2022/11/12 12:15:02;;;;;;;6.50;3.00;;;;;17.70;102428.00;;;;10426300;28;20216;-75
2022/11/12 12:20:29;;;;;;;5.63;2.90;;;;;18.00;102424.00;;;;10480300;28;20193;-75
2022/11/12 12:25:51;;;;;;;3.47;2.65;;;;;18.20;102422.00;;;;10466184;28;20256;-75
2022/11/12 12:31:24;;;;;;;6.57;3.13;;;;;18.30;102404.00;;;;10498016;28;20725;-74
2022/11/12 12:36:50;;;;;;;5.03;3.10;;;;;18.50;102394.00;;;;10435799;28;20204;-75
2022/11/12 12:42:34;;;;;;;5.35;3.42;;;;;18.60;102388.00;;;;10422783;28;20795;-75
2022/11/12 12:47:57;;;;;;;4.65;3.38;;;;;18.70;102388.00;;;;10462863;28;20193;-75
2022/11/12 12:53:21;;;;;;;4.32;3.03;;;;;18.70;102387.00;;;;10482068;28;20205;-75
2022/11/12 12:58:44;;;;;;;4.55;2.90;;;;;18.80;102398.00;;;;10465274;28;20542;-75
2022/11/12 13:04:10;;;;;;;3.17;2.25;;;;;18.90;102387.00;;;;10456847;28;20210;-75
2022/11/12 13:09:32;;;;;;;5.38;2.63;;;;;18.70;102377.00;;;;10437338;28;20186;-75
2022/11/12 13:15:08;;;;;;;4.93;2.63;;;;;18.30;102367.00;;;;10423101;28;20210;-75
2022/11/12 13:20:35;;;;;;;3.55;2.33;;;;;18.20;102372.00;;;;10436876;28;20182;-75
2022/11/12 13:26:34;;;;;;;4.18;2.53;;;;;18.10;102358.00;;;;10439466;28;20209;-75
2022/11/12 13:32:25;;;;;;;24.02;5.90;;;;;18.10;102354.00;;;;10469365;28;20204;-75
2022/11/12 13:37:59;;;;;;;9.90;3.40;;;;;18.30;102355.00;;;;10447258;28;20219;-75
2022/11/12 13:43:40;;;;;;;2.85;2.47;;;;;18.50;102348.00;;;;10495118;28;20585;-75
2022/11/12 13:49:08;;;;;;;3.10;2.42;;;;;18.50;102360.00;;;;10480072;28;20268;-75
2022/11/12 13:54:31;;;;;;;4.78;2.60;;;;;18.20;102366.00;;;;10446445;28;20624;-75
2022/11/12 14:00:17;;;;;;;4.00;2.78;;;;;18.30;102344.00;;;;10462352;28;20268;-75
2022/11/12 14:05:38;;;;;;;3.95;2.53;;;;;18.10;102337.00;;;;10461492;28;20221;-75
2022/11/12 14:11:24;;;;;;;3.80;2.20;;;;;19.00;102328.00;;;;10476712;28;20205;-75
2022/11/12 14:17:14;;;;;;;5.30;2.50;;;;;19.30;102327.00;;;;10459648;28;20190;-75
2022/11/12 14:22:43;;;;;;;2.78;2.50;;;;;17.70;102314.00;;;;10446017;28;20247;-75
2022/11/12 14:28:04;;;;;;;3.33;2.20;;;;;16.90;102308.00;;;;10478410;28;20197;-75
2022/11/12 14:33:26;;;;;;;2.55;2.20;;;;;16.50;102320.00;;;;10420068;28;20553;-75
2022/11/12 14:38:50;;;;;;;5.70;2.60;;;;;16.20;102321.00;;;;10420418;28;20194;-75
2022/11/12 14:44:22;;;;;;;5.35;3.22;;;;;15.90;102320.00;;;;10433962;28;20281;-75
2022/11/12 14:49:45;;;;;;;4.78;3.63;;;;;15.70;102319.00;;;;10475228;28;20718;-75
2022/11/12 14:55:11;;;;;;;7.03;2.70;;;;;15.60;102324.00;;;;10461045;28;20209;-74
2022/11/12 15:00:38;;;;;;;3.53;2.38;;;;;15.40;102317.00;;;;10458782;28;20280;-74
2022/11/12 15:06:08;;;;;;;3.22;2.40;;;;;15.70;102306.00;;;;10451512;28;20210;-75
2022/11/12 15:11:41;;;;;;;3.20;2.53;;;;;15.60;102310.00;;;;10403363;28;20760;-75
2022/11/12 15:17:04;;;;;;;3.80;2.60;;;;;15.10;102314.00;;;;10436718;28;20194;-75
2022/11/12 15:22:24;;;;;;;6.03;3.28;;;;;14.80;102309.00;;;;10419533;28;20560;-75
2022/11/12 15:27:45;;;;;;;3.47;2.72;;;;;14.60;102297.00;;;;10403437;28;20561;-75
2022/11/12 15:33:12;;;;;;;4.20;3.80;;;;;14.40;102302.00;;;;10414159;28;20360;-75
2022/11/12 15:38:35;;;;;;;4.40;2.80;;;;;14.10;102295.00;;;;10403597;28;20240;-75
2022/11/12 15:43:55;;;;;;;5.85;3.10;;;;;14.00;102291.00;;;;10429272;28;20652;-75
2022/11/12 15:49:16;;;;;;;5.57;3.00;;;;;13.80;102286.00;;;;10468573;28;20189;-75
2022/11/12 15:54:37;;;;;;;5.17;2.30;;;;;13.50;102278.00;;;;10468320;28;20294;-75
2022/11/12 16:00:06;;;;;;;2.90;2.60;;;;;13.20;102271.00;;;;10467877;28;20197;-75
2022/11/12 16:05:28;;;;;;;3.63;3.17;;;;;12.80;102268.00;;;;10448289;28;20225;-75
2022/11/12 16:10:49;;;;;;;7.73;3.13;;;;;12.50;102261.00;;;;10440033;28;20202;-75
2022/11/12 16:16:11;;;;;;;6.73;3.80;;;;;12.30;102258.00;;;;10443047;28;20217;-75
2022/11/12 16:21:31;;;;;;;7.23;5.13;;;;;12.00;102250.00;;;;10425965;28;20642;-75
2022/11/12 16:26:52;;;;;;;10.73;5.67;;;;;11.90;102256.00;;;;10442569;28;20668;-75
2022/11/12 16:32:13;;;;;;;8.70;4.80;;;;;11.70;102267.00;;;;10415295;28;20202;-75
2022/11/12 16:37:33;;;;;;;6.37;4.63;;;;;11.40;102266.00;;;;10467007;28;20205;-75
2022/11/12 16:42:54;;;;;;;7.33;5.50;;;;;11.30;102266.00;;;;10463245;28;20192;-75
2022/11/12 16:48:19;;;;;;;9.07;5.23;;;;;11.10;102267.00;;;;10463166;28;20206;-75
2022/11/12 16:53:40;;;;;;;7.97;6.73;;;;;10.90;102268.00;;;;10465790;28;20198;-75
2022/11/12 16:59:00;;;;;;;9.33;5.77;;;;;10.80;102257.00;;;;10464956;28;20295;-75
2022/11/12 17:04:23;;;;;;;10.50;6.50;;;;;10.60;102261.00;;;;10477895;28;20304;-75
2022/11/12 17:09:43;;;;;;;11.07;6.37;;;;;10.50;102266.00;;;;10478456;28;20205;-75
2022/11/12 17:15:05;;;;;;;9.40;6.67;;;;;10.30;102254.00;;;;10446948;28;20197;-75
2022/11/12 17:20:26;;;;;;;10.13;6.73;;;;;10.20;102256.00;;;;10461941;28;20189;-75
2022/11/12 17:25:46;;;;;;;9.33;6.47;;;;;10.10;102253.00;;;;10462608;28;20525;-75
2022/11/12 17:31:20;;;;;;;13.57;7.73;;;;;10.10;102252.00;;;;10464573;28;20664;-75
2022/11/12 17:36:40;;;;;;;13.83;8.37;;;;;10.00;102245.00;;;;10433976;28;20205;-75
2022/11/12 17:42:03;;;;;;;13.50;8.20;;;;;9.80;102239.00;;;;10478341;28;20540;-75
2022/11/12 17:47:23;;;;;;;10.07;7.37;;;;;9.70;102240.00;;;;10463639;28;20189;-75
2022/11/12 17:52:44;;;;;;;12.30;8.23;;;;;9.60;102232.00;;;;10463507;28;20214;-74
2022/11/12 17:58:05;;;;;;;15.13;8.27;;;;;9.60;102234.00;;;;10463692;28;20192;-74
2022/11/12 18:03:25;;;;;;;12.23;7.67;;;;;9.50;102231.00;;;;10463198;28;20186;-75
2022/11/12 18:08:51;;;;;;;11.87;7.77;;;;;9.50;102237.00;;;;10480232;28;20199;-75
2022/11/12 18:14:11;;;;;;;9.67;8.63;;;;;9.40;102237.00;;;;10459797;28;20209;-75
2022/11/12 18:19:32;;;;;;;11.73;9.17;;;;;9.30;102242.00;;;;10451787;28;20183;-76
2022/11/12 18:24:52;;;;;;;16.53;11.93;;;;;9.20;102243.00;;;;10434866;28;20557;-75
2022/11/12 18:30:13;;;;;;;28.67;18.33;;;;;9.20;102241.00;;;;10451430;28;20188;-75
2022/11/12 18:35:39;;;;;;;36.03;25.13;;;;;9.20;102246.00;;;;10405546;28;20236;-75
2022/11/12 18:41:09;;;;;;;26.40;21.07;;;;;9.00;102240.00;;;;10434806;28;20408;-75
2022/11/12 18:46:29;;;;;;;33.00;23.20;;;;;8.90;102235.00;;;;10404683;28;20194;-75
2022/11/12 18:51:50;;;;;;;37.50;25.10;;;;;8.80;102235.00;;;;10436457;28;20213;-75
2022/11/12 18:57:11;;;;;;;32.30;23.67;;;;;8.70;102238.00;;;;10478620;28;20551;-75
2022/11/12 19:02:32;;;;;;;31.70;23.43;;;;;8.60;102241.00;;;;10478952;28;20192;-75
2022/11/12 19:07:52;;;;;;;34.63;22.80;;;;;8.50;102242.00;;;;10422087;28;20360;-75
2022/11/12 19:13:12;;;;;;;31.37;24.07;;;;;8.40;102238.00;;;;10433988;28;20202;-75
2022/11/12 19:18:33;;;;;;;30.53;21.70;;;;;8.40;102229.00;;;;10433815;28;20190;-75
2022/11/12 19:23:54;;;;;;;34.03;20.73;;;;;8.30;102223.00;;;;10444404;28;20197;-75
2022/11/12 19:29:14;;;;;;;20.57;15.40;;;;;8.20;102218.00;;;;10470586;28;20197;-75
2022/11/12 19:34:35;;;;;;;18.23;13.80;;;;;8.10;102213.00;;;;10456722;28;20220;-75
2022/11/12 19:39:55;;;;;;;23.53;17.53;;;;;8.10;102211.00;;;;10441555;28;20178;-75
2022/11/12 19:45:16;;;;;;;25.17;16.97;;;;;8.00;102203.00;;;;10438559;28;20198;-75
2022/11/12 19:50:36;;;;;;;23.30;15.90;;;;;8.00;102202.00;;;;10451607;28;20225;-75
2022/11/12 19:56:01;;;;;;;21.23;15.10;;;;;7.90;102197.00;;;;10485004;28;20185;-75
2022/11/12 20:01:22;;;;;;;21.47;14.77;;;;;7.80;102197.00;;;;10468167;28;20273;-75
2022/11/12 20:06:42;;;;;;;21.40;15.67;;;;;7.70;102192.00;;;;10468137;28;20580;-75
2022/11/12 20:12:03;;;;;;;21.47;15.30;;;;;7.70;102190.00;;;;10464401;28;20216;-75
2022/11/12 20:17:24;;;;;;;21.70;14.87;;;;;7.60;102177.00;;;;10449985;28;20194;-75
2022/11/12 20:22:44;;;;;;;23.23;14.53;;;;;7.60;102177.00;;;;10464333;28;20672;-75
2022/11/12 20:28:06;;;;;;;21.63;14.43;;;;;7.50;102182.00;;;;10480643;28;20198;-75
2022/11/12 20:33:27;;;;;;;23.37;17.10;;;;;7.40;102176.00;;;;10479068;28;20206;-75
2022/11/12 20:38:49;;;;;;;23.17;15.50;;;;;7.30;102173.00;;;;10466570;28;20200;-75
2022/11/12 20:44:10;;;;;;;21.37;16.03;;;;;7.30;102173.00;;;;10449753;28;20174;-75
2022/11/12 20:49:30;;;;;;;27.30;17.60;;;;;7.30;102177.00;;;;10463326;28;20216;-74
2022/11/12 20:54:51;;;;;;;24.70;17.60;;;;;7.40;102169.00;;;;10479904;28;20777;-74
2022/11/12 21:00:12;;;;;;;29.67;20.33;;;;;7.40;102176.00;;;;10497683;28;20193;-74
2022/11/12 21:05:34;;;;;;;22.03;16.97;;;;;7.40;102182.00;;;;10465469;28;20259;-74
2022/11/12 21:10:56;;;;;;;23.63;16.33;;;;;7.40;102182.00;;;;10449123;28;20193;-74
2022/11/12 21:16:16;;;;;;;24.70;17.13;;;;;7.30;102185.00;;;;10449078;28;20588;-74
2022/11/12 21:21:36;;;;;;;23.27;16.93;;;;;7.30;102177.00;;;;10423825;28;20187;-74
2022/11/12 21:26:57;;;;;;;23.03;16.87;;;;;7.30;102178.00;;;;10423069;28;20194;-74
2022/11/12 21:32:17;;;;;;;26.43;19.90;;;;;7.20;102173.00;;;;10454230;28;20568;-74
2022/11/12 21:37:38;;;;;;;21.23;15.90;;;;;7.20;102163.00;;;;10427052;28;20746;-74
2022/11/12 21:42:59;;;;;;;27.50;17.63;;;;;7.10;102156.00;;;;10436427;28;20174;-74
2022/11/12 21:48:19;;;;;;;27.43;17.93;;;;;7.10;102160.00;;;;10450017;28;20267;-74
2022/11/12 21:53:42;;;;;;;37.97;26.47;;;;;7.10;102154.00;;;;10477534;28;20209;-74
2022/11/12 21:59:03;;;;;;;28.27;19.97;;;;;7.00;102154.00;;;;10446685;28;20197;-74
2022/11/12 22:04:23;;;;;;;25.63;17.93;;;;;7.00;102152.00;;;;10443852;28;20303;-74
2022/11/12 22:09:44;;;;;;;27.80;18.63;;;;;7.00;102153.00;;;;10419140;28;20190;-74
2022/11/12 22:15:05;;;;;;;28.83;18.63;;;;;6.90;102153.00;;;;10405444;28;20213;-75
2022/11/12 22:20:26;;;;;;;26.20;17.40;;;;;6.80;102141.00;;;;10405034;28;20186;-75
2022/11/12 22:25:47;;;;;;;25.37;17.57;;;;;6.80;102161.00;;;;10437926;28;20186;-75
2022/11/12 22:31:12;;;;;;;30.60;19.73;;;;;6.70;102153.00;;;;10426937;28;20251;-74
2022/11/12 22:36:33;;;;;;;26.60;17.63;;;;;6.70;102139.00;;;;10433777;28;20276;-74
2022/11/12 22:41:53;;;;;;;22.80;16.93;;;;;6.70;102143.00;;;;10434403;28;20197;-74
2022/11/12 22:47:14;;;;;;;28.83;18.73;;;;;6.60;102137.00;;;;10473851;28;20208;-74
2022/11/12 22:52:34;;;;;;;22.90;16.50;;;;;6.50;102130.00;;;;10444933;28;20210;-74
2022/11/12 22:57:58;;;;;;;25.30;17.47;;;;;6.50;102117.00;;;;10474867;28;20235;-74
2022/11/12 23:03:19;;;;;;;25.10;17.50;;;;;6.40;102125.00;;;;10434451;28;20210;-74
2022/11/12 23:08:39;;;;;;;24.97;16.93;;;;;6.30;102117.00;;;;10417235;28;20227;-74
2022/11/12 23:14:00;;;;;;;25.10;16.23;;;;;6.20;102117.00;;;;10433624;28;20213;-75
2022/11/12 23:19:20;;;;;;;23.47;16.20;;;;;6.20;102116.00;;;;10433732;28;20186;-74
2022/11/12 23:24:41;;;;;;;24.10;17.67;;;;;6.10;102108.00;;;;10419942;28;20664;-76
2022/11/12 23:30:02;;;;;;;23.57;17.40;;;;;6.10;102089.00;;;;10449345;28;20217;-74
2022/11/12 23:35:22;;;;;;;28.80;18.37;;;;;6.00;102085.00;;;;10441772;28;20285;-74
2022/11/12 23:40:51;;;;;;;24.70;16.77;;;;;5.90;102089.00;;;;10429144;28;20331;-74
2022/11/12 23:46:11;;;;;;;23.83;16.93;;;;;5.90;102084.00;;;;10474238;28;20660;-74
2022/11/12 23:51:32;;;;;;;20.27;15.63;;;;;5.80;102077.00;;;;10477291;28;20217;-74
2022/11/12 23:56:53;;;;;;;25.57;16.60;;;;;5.80;102075.00;;;;10477533;28;20193;-74
